createdAt,value
2019-04-28T00:02:22.546Z,101092.95
2019-04-28T00:04:51.462Z,101095.86
2019-04-28T00:07:21.528Z,101092.28
2019-04-28T00:09:51.117Z,101101.58
2019-04-28T00:12:21.029Z,101101.44
2019-04-28T00:14:51.644Z,101103.00
2019-04-28T00:17:21.109Z,101103.76
2019-04-28T00:19:51.512Z,101107.70
2019-04-28T00:22:27.592Z,101108.05
2019-04-28T00:25:01.589Z,101109.42
2019-04-28T00:27:31.603Z,101109.97
2019-04-28T00:30:01.940Z,101112.58
2019-04-28T00:32:30.890Z,101115.91
2019-04-28T00:35:02.315Z,101116.64
2019-04-28T00:37:32.058Z,101121.56
2019-04-28T00:40:01.095Z,101114.95
2019-04-28T00:42:31.441Z,101120.78
2019-04-28T00:45:01.456Z,101124.72
2019-04-28T00:47:31.080Z,101120.69
2019-04-28T00:50:01.944Z,101126.66
2019-04-28T00:52:31.821Z,101122.74
2019-04-28T00:55:01.179Z,101120.37
2019-04-28T00:57:31.033Z,101126.45
2019-04-28T00:59:59.623Z,101120.86
2019-04-28T01:02:31.213Z,101121.43
2019-04-28T01:05:01.628Z,101117.86
2019-04-28T01:07:31.299Z,101120.27
2019-04-28T01:10:01.396Z,101119.60
2019-04-28T01:12:31.082Z,101121.16
2019-04-28T01:15:01.741Z,101118.61
2019-04-28T01:17:31.437Z,101119.85
2019-04-28T01:20:10.571Z,101120.38
2019-04-28T01:22:40.173Z,101124.46
2019-04-28T01:25:10.628Z,101116.77
2019-04-28T01:27:40.788Z,101119.70
2019-04-28T01:30:11.472Z,101113.26
2019-04-28T01:32:53.678Z,101115.84
2019-04-28T01:35:22.101Z,101121.12
2019-04-28T01:37:50.640Z,101121.95
2019-04-28T01:40:20.489Z,101120.39
2019-04-28T01:42:49.950Z,101123.12
2019-04-28T01:45:20.443Z,101130.80
2019-04-28T01:47:50.411Z,101129.61
2019-04-28T01:50:20.513Z,101126.73
2019-04-28T01:52:49.636Z,101130.50
2019-04-28T01:55:19.983Z,101131.86
2019-04-28T01:57:49.802Z,101136.99
2019-04-28T02:00:25.018Z,101135.63
2019-04-28T02:02:50.537Z,101138.36
2019-04-28T02:05:19.664Z,101136.32
2019-04-28T02:07:48.230Z,101139.91
2019-04-28T02:10:16.656Z,101141.28
2019-04-28T02:12:45.064Z,101143.48
2019-04-28T02:15:13.666Z,101143.80
2019-04-28T02:17:42.062Z,101149.58
2019-04-28T02:20:10.732Z,101155.02
2019-04-28T02:22:40.809Z,101152.82
2019-04-28T02:25:09.950Z,101153.98
2019-04-28T02:27:40.039Z,101152.50
2019-04-28T02:30:11.500Z,101158.98
2019-04-28T02:32:40.773Z,101161.20
2019-04-28T02:35:10.828Z,101162.55
2019-04-28T02:37:40.634Z,101165.60
2019-04-28T02:40:10.670Z,101166.13
2019-04-28T02:42:40.936Z,101155.91
2019-04-28T02:45:11.562Z,101163.39
2019-04-28T02:47:41.911Z,101157.11
2019-04-28T02:50:17.260Z,101158.84
2019-04-28T02:53:01.593Z,101168.05
2019-04-28T02:55:31.647Z,101170.25
2019-04-28T02:58:01.435Z,101181.32
2019-04-28T03:00:31.690Z,101177.23
2019-04-28T03:03:01.466Z,101174.19
2019-04-28T03:05:32.995Z,101172.83
2019-04-28T03:08:01.186Z,101177.95
2019-04-28T03:10:30.999Z,101178.47
2019-04-28T03:13:01.001Z,101180.00
2019-04-28T03:15:30.397Z,101182.08
2019-04-28T03:18:01.749Z,101184.65
2019-04-28T03:20:30.531Z,101181.61
2019-04-28T03:23:00.919Z,101182.29
2019-04-28T03:25:33.425Z,101187.27
2019-04-28T03:28:05.601Z,101187.46
2019-04-28T03:30:43.497Z,101185.94
2019-04-28T03:33:13.256Z,101190.23
2019-04-28T03:35:44.027Z,101196.56
2019-04-28T03:38:10.779Z,101201.52
2019-04-28T03:40:41.437Z,101203.05
2019-04-28T03:43:10.412Z,101198.95
2019-04-28T03:45:44.230Z,101206.64
2019-04-28T03:48:12.663Z,101204.12
2019-04-28T03:50:41.588Z,101206.03
2019-04-28T03:53:11.154Z,101206.72
2019-04-28T03:55:41.639Z,101209.96
2019-04-28T03:58:10.479Z,101207.76
2019-04-28T04:00:40.898Z,101210.09
2019-04-28T04:03:10.905Z,101211.65
2019-04-28T04:05:40.665Z,101213.84
2019-04-28T04:08:10.985Z,101216.25
2019-04-28T04:10:50.420Z,101218.12
2019-04-28T04:13:20.576Z,101217.28
2019-04-28T04:15:54.452Z,101218.97
2019-04-28T04:18:30.981Z,101223.58
2019-04-28T04:21:00.811Z,101220.53
2019-04-28T04:23:30.949Z,101215.41
2019-04-28T04:26:01.805Z,101216.90
2019-04-28T04:28:30.407Z,101221.17
2019-04-28T04:31:02.481Z,101226.63
2019-04-28T04:33:31.000Z,101232.78
2019-04-28T04:36:01.560Z,101236.99
2019-04-28T04:38:31.219Z,101241.23
2019-04-28T04:41:01.566Z,101238.19
2019-04-28T04:43:31.034Z,101235.98
2019-04-28T04:46:14.202Z,101242.63
2019-04-28T04:48:44.522Z,101238.88
2019-04-28T04:51:12.997Z,101247.88
2019-04-28T04:53:42.369Z,101249.77
2019-04-28T04:56:10.799Z,101253.33
2019-04-28T04:58:40.624Z,101256.73
2019-04-28T05:01:13.825Z,101267.95
2019-04-28T05:03:43.871Z,101265.55
2019-04-28T05:06:30.280Z,101267.07
2019-04-28T05:08:59.912Z,101264.16
2019-04-28T05:11:29.952Z,101265.38
2019-04-28T05:13:59.676Z,101272.88
2019-04-28T05:16:29.762Z,101266.94
2019-04-28T05:19:00.097Z,101269.34
2019-04-28T05:21:32.784Z,101272.39
2019-04-28T05:24:17.495Z,101280.39
2019-04-28T05:26:49.102Z,101286.52
2019-04-28T05:29:21.818Z,101287.55
2019-04-28T05:31:50.221Z,101294.52
2019-04-28T05:34:18.231Z,101292.28
2019-04-28T05:36:46.815Z,101292.48
2019-04-28T05:39:15.216Z,101294.36
2019-04-28T05:41:43.650Z,101304.73
2019-04-28T05:44:12.058Z,101305.25
2019-04-28T05:46:40.561Z,101307.65
2019-04-28T05:49:10.612Z,101312.38
2019-04-28T05:51:52.434Z,101312.70
2019-04-28T05:54:22.479Z,101313.20
2019-04-28T05:57:02.392Z,101316.77
2019-04-28T05:59:47.828Z,101317.61
2019-04-28T06:02:33.789Z,101318.13
2019-04-28T06:05:02.224Z,101324.55
2019-04-28T06:07:44.251Z,101335.25
2019-04-28T06:10:12.827Z,101336.94
2019-04-28T06:12:41.229Z,101334.24
2019-04-28T06:15:11.758Z,101343.26
2019-04-28T06:17:39.894Z,101349.22
2019-04-28T06:20:11.576Z,101345.66
2019-04-28T06:22:38.569Z,101341.05
2019-04-28T06:25:07.000Z,101341.05
2019-04-28T06:27:35.406Z,101347.02
2019-04-28T06:30:05.649Z,101347.56
2019-04-28T06:32:34.749Z,101345.00
2019-04-28T06:35:03.727Z,101345.87
2019-04-28T06:37:32.159Z,101342.63
2019-04-28T06:40:00.568Z,101346.39
2019-04-28T06:42:29.007Z,101353.22
2019-04-28T06:44:57.416Z,101356.47
2019-04-28T06:47:25.853Z,101359.70
2019-04-28T06:49:54.262Z,101363.08
2019-04-28T06:52:22.695Z,101368.52
2019-04-28T06:54:51.109Z,101371.23
2019-04-28T06:57:19.545Z,101377.55
2019-04-28T06:59:47.950Z,101376.38
2019-04-28T07:02:16.385Z,101381.33
2019-04-28T07:04:44.860Z,101378.66
2019-04-28T07:07:13.305Z,101381.74
2019-04-28T07:09:41.773Z,101381.92
2019-04-28T07:12:10.211Z,101392.64
2019-04-28T07:14:38.689Z,101399.45
2019-04-28T07:17:07.187Z,101403.02
2019-04-28T07:19:35.603Z,101392.53
2019-04-28T07:22:08.367Z,101393.19
2019-04-28T07:24:36.772Z,101402.03
2019-04-28T07:27:06.474Z,101404.59
2019-04-28T07:29:34.881Z,101413.61
2019-04-28T07:32:03.390Z,101424.16
2019-04-28T07:34:31.799Z,101426.70
2019-04-28T07:37:00.301Z,101429.09
2019-04-28T07:39:28.702Z,101428.39
2019-04-28T07:41:57.108Z,101431.97
2019-04-28T07:44:25.609Z,101430.61
2019-04-28T07:46:54.015Z,101433.69
2019-04-28T07:49:22.445Z,101435.19
2019-04-28T07:51:52.491Z,101434.50
2019-04-28T07:54:22.097Z,101436.67
2019-04-28T07:56:50.498Z,101448.44
2019-04-28T07:59:18.927Z,101449.06
2019-04-28T08:01:48.066Z,101456.04
2019-04-28T08:04:16.498Z,101457.34
2019-04-28T08:06:44.898Z,101464.86
2019-04-28T08:09:14.968Z,101459.74
2019-04-28T08:11:43.380Z,101464.34
2019-04-28T08:14:11.813Z,101467.73
2019-04-28T08:16:40.213Z,101473.85
2019-04-28T08:19:08.645Z,101478.63
2019-04-28T08:21:37.118Z,101489.15
2019-04-28T08:24:05.728Z,101492.84
2019-04-28T08:26:36.291Z,101481.41
2019-04-28T08:29:04.356Z,101482.03
2019-04-28T08:31:49.460Z,101483.72
2019-04-28T08:34:19.526Z,101485.77
2019-04-28T08:36:47.926Z,101491.21
2019-04-28T08:39:16.498Z,101496.66
2019-04-28T08:41:44.906Z,101501.55
2019-04-28T08:44:13.339Z,101506.99
2019-04-28T08:46:41.742Z,101504.11
2019-04-28T08:49:10.177Z,101503.61
2019-04-28T08:51:38.580Z,101504.76
2019-04-28T08:54:07.049Z,101518.53
2019-04-28T08:56:35.485Z,101520.67
2019-04-28T08:59:05.032Z,101523.78
2019-04-28T09:01:33.583Z,101523.61
2019-04-28T09:04:14.437Z,101519.34
2019-04-28T09:06:32.186Z,101522.94
2019-04-28T09:09:00.544Z,101531.11
2019-04-28T09:11:28.972Z,101535.33
2019-04-28T09:13:57.405Z,101537.86
2019-04-28T09:16:25.831Z,101542.96
2019-04-28T09:18:54.237Z,101539.20
2019-04-28T09:21:22.668Z,101555.27
2019-04-28T09:23:51.062Z,101549.59
2019-04-28T09:26:19.497Z,101559.74
2019-04-28T09:28:47.900Z,101557.33
2019-04-28T09:31:16.338Z,101555.98
2019-04-28T09:33:45.115Z,101564.84
2019-04-28T09:36:13.553Z,101562.33
2019-04-28T09:38:41.959Z,101565.08
2019-04-28T09:41:10.392Z,101577.09
2019-04-28T09:43:56.290Z,101580.76
2019-04-28T09:46:29.459Z,101579.63
2019-04-28T09:48:57.930Z,101580.75
2019-04-28T09:51:26.360Z,101584.03
2019-04-28T09:53:54.769Z,101586.92
2019-04-28T09:56:23.209Z,101581.88
2019-04-28T09:58:51.621Z,101581.95
2019-04-28T10:01:20.034Z,101582.77
2019-04-28T10:03:48.518Z,101586.20
2019-04-28T10:06:16.954Z,101584.63
2019-04-28T10:08:45.388Z,101595.93
2019-04-28T10:11:13.795Z,101579.50
2019-04-28T10:13:42.296Z,101586.13
2019-04-28T10:16:10.778Z,101586.02
2019-04-28T10:18:39.219Z,101589.92
2019-04-28T10:21:07.688Z,101594.30
2019-04-28T10:23:36.129Z,101594.33
2019-04-28T10:26:04.669Z,101597.09
2019-04-28T10:28:33.102Z,101601.30
2019-04-28T10:31:01.578Z,101604.23
2019-04-28T10:33:30.002Z,101602.47
2019-04-28T10:35:58.412Z,101606.05
2019-04-28T10:38:26.853Z,101608.37
2019-04-28T10:41:02.659Z,101610.84
2019-04-28T10:43:31.160Z,101605.56
2019-04-28T10:45:59.638Z,101608.38
2019-04-28T10:48:28.079Z,101598.91
2019-04-28T10:50:56.485Z,101601.79
2019-04-28T10:53:24.920Z,101607.58
2019-04-28T10:55:53.327Z,101601.07
2019-04-28T10:58:21.768Z,101605.42
2019-04-28T11:00:50.243Z,101604.63
2019-04-28T11:03:18.655Z,101611.36
2019-04-28T11:05:47.101Z,101609.90
2019-04-28T11:08:19.656Z,101617.45
2019-04-28T11:10:48.095Z,101605.46
2019-04-28T11:13:16.505Z,101627.72
2019-04-28T11:15:45.000Z,101623.30
2019-04-28T11:18:13.543Z,101622.55
2019-04-28T11:20:41.978Z,101612.25
2019-04-28T11:23:10.390Z,101616.48
2019-04-28T11:25:38.820Z,101624.77
2019-04-28T11:28:07.571Z,101610.95
2019-04-28T11:30:36.000Z,101613.70
2019-04-28T11:33:11.923Z,101616.02
2019-04-28T11:35:41.994Z,101612.22
2019-04-28T11:38:10.405Z,101615.91
2019-04-28T11:40:38.837Z,101612.48
2019-04-28T11:43:07.317Z,101621.88
2019-04-28T11:45:35.828Z,101602.72
2019-04-28T11:48:04.236Z,101614.37
2019-04-28T11:50:32.675Z,101616.72
2019-04-28T11:53:01.079Z,101613.88
2019-04-28T11:55:29.517Z,101602.00
2019-04-28T11:57:57.926Z,101616.97
2019-04-28T12:00:28.068Z,101613.83
2019-04-28T12:02:56.474Z,101616.47
2019-04-28T12:05:34.374Z,101612.82
2019-04-28T12:07:56.754Z,101604.49
2019-04-28T12:10:26.828Z,101609.73
2019-04-28T12:13:11.898Z,101611.52
2019-04-28T12:15:53.860Z,101611.28
2019-04-28T12:18:40.317Z,101608.80
2019-04-28T12:21:08.827Z,101607.34
2019-04-28T12:23:37.232Z,101616.73
2019-04-28T12:26:05.732Z,101610.71
2019-04-28T12:28:34.136Z,101620.17
2019-04-28T12:31:02.572Z,101618.02
2019-04-28T12:33:30.988Z,101618.75
2019-04-28T12:35:59.421Z,101624.25
2019-04-28T12:38:27.836Z,101623.41
2019-04-28T12:40:56.271Z,101634.95
2019-04-28T12:43:24.676Z,101632.48
2019-04-28T12:45:53.108Z,101629.14
2019-04-28T12:48:21.516Z,101645.73
2019-04-28T12:50:51.591Z,101640.95
2019-04-28T12:53:20.002Z,101649.86
2019-04-28T12:55:48.505Z,101649.75
2019-04-28T12:58:16.915Z,101649.11
2019-04-28T13:00:52.790Z,101644.70
2019-04-28T13:03:37.918Z,101645.52
2019-04-28T13:06:10.789Z,101641.95
2019-04-28T13:08:39.198Z,101644.25
2019-04-28T13:11:07.672Z,101643.45
2019-04-28T13:13:36.109Z,101655.31
2019-04-28T13:16:04.596Z,101653.16
2019-04-28T13:18:33.017Z,101654.63
2019-04-28T13:21:01.426Z,101657.61
2019-04-28T13:23:29.934Z,101653.20
2019-04-28T13:25:58.489Z,101662.91
2019-04-28T13:28:26.931Z,101662.16
2019-04-28T13:30:55.411Z,101675.30
2019-04-28T13:33:23.844Z,101677.37
2019-04-28T13:35:52.247Z,101679.27
2019-04-28T13:38:20.674Z,101683.23
2019-04-28T13:40:49.080Z,101683.98
2019-04-28T13:43:17.527Z,101687.11
2019-04-28T13:45:46.006Z,101680.89
2019-04-28T13:48:14.433Z,101682.40
2019-04-28T13:50:42.839Z,101687.87
2019-04-28T13:53:11.348Z,101683.10
2019-04-28T13:55:47.223Z,101685.88
2019-04-28T13:58:17.460Z,101678.89
2019-04-28T14:00:47.608Z,101682.61
2019-04-28T14:03:34.093Z,101679.66
2019-04-28T14:06:04.172Z,101679.78
2019-04-28T14:08:32.581Z,101672.17
2019-04-28T14:11:00.984Z,101678.30
2019-04-28T14:13:29.430Z,101671.75
2019-04-28T14:15:57.838Z,101678.04
2019-04-28T14:18:26.274Z,101677.63
2019-04-28T14:20:54.683Z,101685.91
2019-04-28T14:23:23.108Z,101687.87
2019-04-28T14:25:51.585Z,101689.09
2019-04-28T14:28:20.063Z,101685.54
2019-04-28T14:30:48.489Z,101688.11
2019-04-28T14:33:16.864Z,101685.46
2019-04-28T14:35:45.296Z,101679.35
2019-04-28T14:38:13.748Z,101693.84
2019-04-28T14:40:42.200Z,101687.36
2019-04-28T14:43:10.619Z,101694.85
2019-04-28T14:45:39.040Z,101693.77
2019-04-28T14:48:07.446Z,101692.88
2019-04-28T14:50:35.879Z,101692.34
2019-04-28T14:53:04.306Z,101703.47
2019-04-28T14:55:32.741Z,101700.69
2019-04-28T14:58:01.133Z,101693.19
2019-04-28T15:00:31.201Z,101701.34
2019-04-28T15:03:03.676Z,101700.05
2019-04-28T15:05:34.119Z,101705.02
2019-04-28T15:08:12.914Z,101711.70
2019-04-28T15:10:45.476Z,101698.52
2019-04-28T15:13:13.917Z,101701.89
2019-04-28T15:15:42.441Z,101706.08
2019-04-28T15:18:10.867Z,101708.30
2019-04-28T15:20:39.345Z,101710.41
2019-04-28T15:23:07.832Z,101711.03
2019-04-28T15:25:36.258Z,101717.57
2019-04-28T15:28:04.732Z,101720.77
2019-04-28T15:30:33.176Z,101718.69
2019-04-28T15:33:01.574Z,101724.80
2019-04-28T15:35:29.979Z,101731.70
2019-04-28T15:37:58.411Z,101730.14
2019-04-28T15:40:26.818Z,101728.52
2019-04-28T15:42:55.255Z,101731.47
2019-04-28T15:45:23.667Z,101729.75
2019-04-28T15:47:52.301Z,101735.52
2019-04-28T15:50:20.686Z,101736.59
2019-04-28T15:52:49.125Z,101736.02
2019-04-28T15:55:19.170Z,101731.85
2019-04-28T15:57:47.609Z,101736.86
2019-04-28T16:00:16.085Z,101733.96
2019-04-28T16:02:44.526Z,101737.61
2019-04-28T16:05:13.108Z,101735.86
2019-04-28T16:07:41.539Z,101736.27
2019-04-28T16:10:10.020Z,101746.89
2019-04-28T16:12:38.454Z,101736.16
2019-04-28T16:15:07.620Z,101742.16
2019-04-28T16:17:36.104Z,101741.94
2019-04-28T16:20:06.268Z,101731.63
2019-04-28T16:22:34.699Z,101730.50
2019-04-28T16:25:03.571Z,101733.39
2019-04-28T16:27:32.010Z,101725.59
2019-04-28T16:30:00.417Z,101730.50
2019-04-28T16:32:28.854Z,101727.02
2019-04-28T16:34:57.267Z,101727.02
2019-04-28T16:37:38.152Z,101737.52
2019-04-28T16:39:55.835Z,101738.90
2019-04-28T16:42:24.266Z,101735.91
2019-04-28T16:44:52.678Z,101740.20
2019-04-28T16:47:21.113Z,101744.59
2019-04-28T16:49:49.522Z,101747.92
2019-04-28T16:52:17.963Z,101750.00
2019-04-28T16:54:48.013Z,101755.72
2019-04-28T16:57:27.036Z,101761.27
2019-04-28T16:59:57.087Z,101760.25
2019-04-28T17:02:30.088Z,101761.22
2019-04-28T17:04:58.506Z,101760.16
2019-04-28T17:07:27.009Z,101768.41
2019-04-28T17:09:55.418Z,101769.11
2019-04-28T17:12:23.826Z,101773.59
2019-04-28T17:14:52.327Z,101775.84
2019-04-28T17:17:20.750Z,101772.19
2019-04-28T17:19:49.177Z,101780.78
2019-04-28T17:22:17.658Z,101778.42
2019-04-28T17:24:46.092Z,101774.20
2019-04-28T17:27:14.502Z,101777.94
2019-04-28T17:29:43.002Z,101776.20
2019-04-28T17:32:11.401Z,101780.86
2019-04-28T17:34:39.839Z,101782.22
2019-04-28T17:37:08.616Z,101786.37
2019-04-28T17:39:37.116Z,101790.00
2019-04-28T17:42:05.866Z,101792.50
2019-04-28T17:44:34.295Z,101792.80
2019-04-28T17:47:02.710Z,101796.63
2019-04-28T17:49:32.855Z,101795.50
2019-04-28T17:52:01.430Z,101798.97
2019-04-28T17:54:29.861Z,101796.27
2019-04-28T17:56:58.265Z,101794.45
2019-04-28T17:59:26.700Z,101800.61
2019-04-28T18:02:08.493Z,101800.61
2019-04-28T18:04:44.331Z,101800.28
2019-04-28T18:07:16.826Z,101796.99
2019-04-28T18:09:45.265Z,101808.57
2019-04-28T18:12:13.671Z,101808.98
2019-04-28T18:14:43.870Z,101805.44
2019-04-28T18:17:16.642Z,101812.55
2019-04-28T18:19:45.061Z,101811.24
2019-04-28T18:22:13.477Z,101812.42
2019-04-28T18:24:41.907Z,101810.74
2019-04-28T18:27:10.314Z,101820.27
2019-04-28T18:29:38.748Z,101821.36
2019-04-28T18:32:08.791Z,101825.45
2019-04-28T18:34:41.827Z,101825.55
2019-04-28T18:37:17.590Z,101824.27
2019-04-28T18:40:03.925Z,101833.05
2019-04-28T18:42:49.351Z,101839.79
2019-04-28T18:45:18.428Z,101845.69
2019-04-28T18:47:46.900Z,101850.17
2019-04-28T18:50:15.329Z,101857.86
2019-04-28T18:52:43.808Z,101866.92
2019-04-28T18:55:13.003Z,101862.52
2019-04-28T18:57:41.405Z,101859.62
2019-04-28T19:00:09.973Z,101864.53
2019-04-28T19:02:45.923Z,101868.95
2019-04-28T19:05:14.490Z,101876.80
2019-04-28T19:07:44.534Z,101875.95
2019-04-28T19:10:20.695Z,101881.73
2019-04-28T19:12:53.543Z,101884.13
2019-04-28T19:15:39.031Z,101886.67
2019-04-28T19:18:11.772Z,101882.72
2019-04-28T19:20:40.220Z,101883.56
2019-04-28T19:23:08.624Z,101890.03
2019-04-28T19:25:37.034Z,101893.27
2019-04-28T19:28:05.468Z,101898.53
2019-04-28T19:30:33.870Z,101904.49
2019-04-28T19:33:02.305Z,101909.23
2019-04-28T19:35:30.707Z,101914.68
2019-04-28T19:37:59.137Z,101911.43
2019-04-28T19:40:27.545Z,101912.45
2019-04-28T19:42:55.968Z,101914.28
2019-04-28T19:45:24.375Z,101906.23
2019-04-28T19:47:52.800Z,101910.63
2019-04-28T19:50:21.203Z,101916.92
2019-04-28T19:52:49.637Z,101920.16
2019-04-28T19:55:19.685Z,101922.69
2019-04-28T19:57:55.385Z,101924.75
2019-04-28T20:00:37.521Z,101922.52
2019-04-28T20:03:05.950Z,101927.23
2019-04-28T20:05:34.354Z,101931.11
2019-04-28T20:08:02.861Z,101931.45
2019-04-28T20:10:31.330Z,101933.49
2019-04-28T20:12:59.770Z,101934.66
2019-04-28T20:15:28.164Z,101933.94
2019-04-28T20:17:56.594Z,101937.08
2019-04-28T20:20:24.998Z,101938.20
2019-04-28T20:22:53.426Z,101938.20
2019-04-28T20:25:21.826Z,101944.02
2019-04-28T20:27:50.262Z,101951.97
2019-04-28T20:30:18.835Z,101961.58
2019-04-28T20:32:47.266Z,101960.66
2019-04-28T20:35:17.581Z,101964.53
2019-04-28T20:37:47.622Z,101968.61
2019-04-28T20:40:17.691Z,101967.93
2019-04-28T20:42:56.908Z,101970.85
2019-04-28T20:45:25.379Z,101968.30
2019-04-28T20:47:53.779Z,101970.85
2019-04-28T20:50:22.208Z,101971.88
2019-04-28T20:52:50.615Z,101973.23
2019-04-28T20:55:19.037Z,101979.82
2019-04-28T20:57:47.438Z,101976.42
2019-04-28T21:00:16.007Z,101981.14
2019-04-28T21:02:44.413Z,101980.25
2019-04-28T21:05:12.916Z,101980.21
2019-04-28T21:07:41.316Z,101991.03
2019-04-28T21:10:09.882Z,101984.34
2019-04-28T21:12:38.284Z,101985.48
2019-04-28T21:15:07.189Z,101983.58
2019-04-28T21:17:35.564Z,101985.91
2019-04-28T21:20:06.776Z,101989.47
2019-04-28T21:22:35.193Z,101986.16
2019-04-28T21:25:05.064Z,101971.48
2019-04-28T21:27:33.460Z,101971.48
2019-04-28T21:30:01.896Z,101986.55
2019-04-28T21:32:30.297Z,101980.09
2019-04-28T21:34:58.735Z,101975.38
2019-04-28T21:37:27.129Z,101986.08
2019-04-28T21:39:55.557Z,101983.66
2019-04-28T21:42:25.600Z,101975.94
2019-04-28T21:45:10.593Z,101972.23
2019-04-28T21:47:40.768Z,101969.56
2019-04-28T21:50:10.731Z,101976.39
2019-04-28T21:52:39.135Z,101978.69
2019-04-28T21:55:07.641Z,101966.16
2019-04-28T21:57:36.105Z,101972.30
2019-04-28T22:00:09.171Z,101966.53
2019-04-28T22:02:37.641Z,101965.69
2019-04-28T22:05:07.207Z,101964.02
2019-04-28T22:07:35.608Z,101960.16
2019-04-28T22:10:05.995Z,101968.38
2019-04-28T22:12:34.399Z,101966.03
2019-04-28T22:15:02.805Z,101973.38
2019-04-28T22:17:31.239Z,101978.67
2019-04-28T22:19:59.647Z,101980.91
2019-04-28T22:22:28.081Z,101989.10
2019-04-28T22:24:58.126Z,101980.64
2019-04-28T22:27:28.192Z,101987.78
2019-04-28T22:29:56.600Z,101986.11
2019-04-28T22:32:25.020Z,101992.09
2019-04-28T22:34:53.428Z,101993.85
2019-04-28T22:37:21.861Z,101995.55
2019-04-28T22:39:50.263Z,102002.69
2019-04-28T22:42:18.692Z,101990.91
2019-04-28T22:44:47.118Z,101995.32
2019-04-28T22:47:15.527Z,101994.78
2019-04-28T22:49:43.936Z,101999.02
2019-04-28T22:52:12.369Z,101995.80
2019-04-28T22:54:51.264Z,101995.29
2019-04-28T22:57:39.708Z,101991.72
2019-04-28T23:00:11.289Z,101987.95
2019-04-28T23:02:39.718Z,101990.97
2019-04-28T23:05:09.060Z,101990.46
2019-04-28T23:07:37.496Z,101989.65
2019-04-28T23:10:07.249Z,101989.52
2019-04-28T23:12:35.671Z,101995.80
2019-04-28T23:15:06.253Z,101997.30
2019-04-28T23:17:34.759Z,101987.23
2019-04-28T23:20:04.601Z,101991.48
2019-04-28T23:22:46.711Z,101990.22
2019-04-28T23:25:07.865Z,101983.05
2019-04-28T23:27:36.294Z,101983.05
2019-04-28T23:30:06.833Z,101990.70
2019-04-28T23:32:35.265Z,101983.94
2019-04-28T23:35:04.412Z,101978.33
2019-04-28T23:37:32.845Z,101976.13
2019-04-28T23:40:01.254Z,101979.05
2019-04-28T23:42:31.297Z,101979.05
2019-04-28T23:44:59.731Z,101985.70
2019-04-28T23:47:28.135Z,101986.18
2019-04-28T23:49:56.939Z,101978.84
2019-04-28T23:52:41.867Z,101984.95
2019-04-28T23:55:10.739Z,101978.37
2019-04-28T23:57:39.147Z,101981.42
